createdAt,value
2022-08-29T00:03:01.229Z,92.61
2022-08-29T00:06:04.851Z,92.51
2022-08-29T00:09:06.788Z,92.71
2022-08-29T00:12:08.923Z,92.59
2022-08-29T00:15:11.968Z,92.64
2022-08-29T00:18:19.421Z,92.73
2022-08-29T00:21:21.396Z,92.93
2022-08-29T00:24:23.178Z,93.09
2022-08-29T00:27:25.451Z,93.44
2022-08-29T00:30:27.310Z,93.54
2022-08-29T00:33:29.202Z,93.37
2022-08-29T00:36:31.052Z,93.27
2022-08-29T00:39:33.150Z,93.28
2022-08-29T00:42:36.717Z,93.14
2022-08-29T00:45:47.005Z,93.17
2022-08-29T00:48:54.655Z,93.05
2022-08-29T00:51:58.700Z,93.54
2022-08-29T00:55:04.032Z,93.54
2022-08-29T00:58:18.688Z,93.84
2022-08-29T01:01:21.443Z,93.54
2022-08-29T01:04:24.529Z,93.54
2022-08-29T01:07:27.068Z,93.47
2022-08-29T01:10:47.378Z,93.52
2022-08-29T01:13:49.625Z,93.35
2022-08-29T01:16:52.675Z,93.46
2022-08-29T01:20:06.275Z,93.43
2022-08-29T01:23:15.643Z,93.47
2022-08-29T01:26:17.439Z,93.41
2022-08-29T01:29:19.178Z,93.58
2022-08-29T01:32:22.581Z,93.62
2022-08-29T01:35:25.463Z,93.80
2022-08-29T01:38:29.974Z,93.49
2022-08-29T01:41:32.961Z,93.60
2022-08-29T01:44:34.636Z,93.62
2022-08-29T01:47:37.939Z,93.87
2022-08-29T01:50:40.005Z,94.10
2022-08-29T01:53:42.442Z,94.04
2022-08-29T01:56:47.485Z,94.34
2022-08-29T01:59:49.650Z,94.29
2022-08-29T02:02:52.046Z,94.25
2022-08-29T02:05:54.016Z,94.16
2022-08-29T02:08:56.065Z,94.25
2022-08-29T02:11:58.435Z,94.47
2022-08-29T02:15:00.530Z,94.34
2022-08-29T02:18:02.377Z,94.40
2022-08-29T02:21:04.707Z,94.52
2022-08-29T02:24:24.044Z,94.62
2022-08-29T02:27:27.122Z,94.69
2022-08-29T02:30:28.846Z,94.68
2022-08-29T02:33:31.524Z,94.68
2022-08-29T02:36:33.943Z,94.76
2022-08-29T02:39:36.186Z,95.11
2022-08-29T02:42:38.488Z,95.03
2022-08-29T02:45:41.875Z,94.99
2022-08-29T02:48:49.306Z,94.90
2022-08-29T02:52:04.693Z,95.21
2022-08-29T02:55:07.534Z,95.16
2022-08-29T02:58:09.493Z,95.34
2022-08-29T03:01:11.474Z,95.17
2022-08-29T03:04:13.530Z,95.33
2022-08-29T03:07:15.409Z,95.45
2022-08-29T03:10:17.331Z,95.47
2022-08-29T03:13:19.290Z,95.35
2022-08-29T03:16:21.128Z,95.37
2022-08-29T03:19:23.198Z,95.39
2022-08-29T03:22:26.237Z,95.25
2022-08-29T03:25:28.212Z,95.16
2022-08-29T03:28:30.439Z,95.06
2022-08-29T03:31:32.721Z,95.08
2022-08-29T03:34:34.873Z,94.97
2022-08-29T03:37:37.134Z,95.03
2022-08-29T03:40:41.229Z,94.84
2022-08-29T03:43:43.066Z,94.84
2022-08-29T03:46:45.480Z,94.77
2022-08-29T03:49:49.337Z,94.93
2022-08-29T03:52:51.547Z,94.97
2022-08-29T03:55:53.323Z,94.96
2022-08-29T03:58:55.896Z,94.93
2022-08-29T04:01:58.703Z,94.93
2022-08-29T04:05:10.034Z,94.98
2022-08-29T04:08:12.941Z,94.95
2022-08-29T04:11:16.147Z,95.05
2022-08-29T04:14:20.186Z,95.01
2022-08-29T04:17:21.854Z,95.07
2022-08-29T04:20:25.890Z,95.04
2022-08-29T04:23:28.071Z,95.03
2022-08-29T04:26:37.808Z,95.08
2022-08-29T04:29:39.973Z,95.14
2022-08-29T04:32:42.016Z,95.12
2022-08-29T04:35:44.057Z,95.17
2022-08-29T04:38:45.840Z,95.12
2022-08-29T04:41:47.685Z,95.18
2022-08-29T04:44:49.440Z,95.37
2022-08-29T04:47:51.616Z,95.50
2022-08-29T04:50:58.273Z,95.58
2022-08-29T04:54:00.228Z,95.68
2022-08-29T04:57:03.472Z,95.61
2022-08-29T05:00:14.042Z,95.66
2022-08-29T05:03:16.529Z,95.56
2022-08-29T05:06:22.628Z,95.74
2022-08-29T05:09:24.715Z,96.00
2022-08-29T05:12:28.313Z,96.21
2022-08-29T05:15:30.469Z,96.66
2022-08-29T05:18:32.253Z,97.18
2022-08-29T05:21:36.514Z,97.48
2022-08-29T05:24:38.543Z,97.42
2022-08-29T05:27:41.064Z,97.52
2022-08-29T05:30:42.769Z,97.89
2022-08-29T05:33:44.624Z,97.73
2022-08-29T05:36:46.377Z,97.76
2022-08-29T05:39:49.990Z,97.84
2022-08-29T05:42:51.696Z,97.73
2022-08-29T05:46:03.892Z,97.74
2022-08-29T05:49:05.920Z,97.62
2022-08-29T05:52:08.437Z,97.94
2022-08-29T05:55:11.062Z,97.90
2022-08-29T05:58:12.887Z,97.97
2022-08-29T06:01:25.232Z,97.97
2022-08-29T06:04:28.062Z,98.23
2022-08-29T06:07:31.062Z,98.52
2022-08-29T06:10:33.182Z,98.22
2022-08-29T06:13:35.061Z,98.59
2022-08-29T06:16:37.061Z,98.77
2022-08-29T06:19:39.852Z,98.84
2022-08-29T06:22:41.788Z,98.86
2022-08-29T06:25:43.437Z,98.96
2022-08-29T06:28:46.377Z,99.02
2022-08-29T06:31:48.169Z,99.13
2022-08-29T06:34:50.005Z,99.21
2022-08-29T06:37:51.845Z,98.85
2022-08-29T06:40:53.526Z,99.17
2022-08-29T06:43:57.022Z,99.26
2022-08-29T06:46:59.387Z,99.17
2022-08-29T06:50:01.188Z,99.13
2022-08-29T06:53:26.371Z,99.09
2022-08-29T06:56:24.754Z,98.95
2022-08-29T06:59:28.605Z,99.01
2022-08-29T07:02:30.422Z,99.20
2022-08-29T07:05:32.265Z,99.28
2022-08-29T07:08:34.943Z,99.36
2022-08-29T07:11:41.088Z,99.57
2022-08-29T07:14:43.254Z,99.77
2022-08-29T07:17:45.531Z,100.00
2022-08-29T07:20:47.450Z,100.00
2022-08-29T07:23:50.199Z,99.90
2022-08-29T07:26:52.245Z,99.63
2022-08-29T07:29:54.385Z,99.57
2022-08-29T07:32:56.227Z,99.36
2022-08-29T07:36:01.286Z,99.36
2022-08-29T07:39:06.807Z,99.31
2022-08-29T07:42:08.618Z,99.44
2022-08-29T07:45:12.197Z,99.29
2022-08-29T07:48:14.414Z,99.35
2022-08-29T07:51:18.402Z,99.54
2022-08-29T07:54:21.171Z,99.45
2022-08-29T07:57:23.692Z,99.51
2022-08-29T08:00:25.453Z,99.36
2022-08-29T08:03:27.294Z,98.85
2022-08-29T08:06:29.049Z,98.50
2022-08-29T08:09:32.822Z,98.74
2022-08-29T08:12:34.669Z,98.65
2022-08-29T08:15:38.682Z,97.67
2022-08-29T08:18:42.162Z,97.03
2022-08-29T08:21:49.632Z,96.43
2022-08-29T08:24:53.062Z,94.86
2022-08-29T08:27:54.934Z,93.91
2022-08-29T08:31:01.188Z,93.81
2022-08-29T08:34:06.466Z,91.79
2022-08-29T08:37:09.340Z,91.78
2022-08-29T08:40:19.868Z,90.76
2022-08-29T08:43:26.743Z,89.07
2022-08-29T08:46:38.919Z,88.42
2022-08-29T08:49:45.803Z,88.18
2022-08-29T08:53:07.510Z,88.12
2022-08-29T08:56:26.513Z,88.65
2022-08-29T08:59:39.584Z,88.55
2022-08-29T09:02:49.489Z,88.52
2022-08-29T09:06:29.782Z,88.77
2022-08-29T09:09:59.545Z,89.19
2022-08-29T09:13:21.638Z,89.53
2022-08-29T09:16:47.042Z,88.73
2022-08-29T09:19:51.131Z,87.78
2022-08-29T09:23:03.487Z,88.55
2022-08-29T09:26:05.480Z,87.97
2022-08-29T09:29:12.046Z,87.23
2022-08-29T09:32:18.824Z,86.27
2022-08-29T09:35:42.486Z,85.78
2022-08-29T09:38:44.193Z,86.01
2022-08-29T09:41:57.770Z,84.95
2022-08-29T09:45:26.675Z,84.42
2022-08-29T09:48:31.063Z,83.90
2022-08-29T09:51:39.022Z,83.42
2022-08-29T09:54:41.751Z,82.92
2022-08-29T09:57:53.040Z,82.77
2022-08-29T10:01:05.505Z,83.33
2022-08-29T10:04:09.211Z,83.23
2022-08-29T10:07:24.423Z,82.75
2022-08-29T10:10:30.701Z,82.00
2022-08-29T10:13:53.282Z,82.42
2022-08-29T10:17:22.859Z,80.05
2022-08-29T10:20:51.166Z,76.75
2022-08-29T10:24:01.777Z,76.41
2022-08-29T10:27:32.725Z,76.73
2022-08-29T10:31:14.435Z,74.71
2022-08-29T10:34:31.613Z,73.83
2022-08-29T10:38:14.976Z,72.35
2022-08-29T10:41:39.881Z,72.96
2022-08-29T10:45:07.915Z,71.73
2022-08-29T10:48:11.859Z,70.31
2022-08-29T10:51:26.366Z,70.88
2022-08-29T10:54:43.738Z,70.57
2022-08-29T10:58:12.390Z,69.88
2022-08-29T11:01:25.985Z,71.30
2022-08-29T11:04:39.387Z,72.62
2022-08-29T11:07:51.043Z,71.93
2022-08-29T11:10:53.562Z,71.15
2022-08-29T11:14:05.568Z,68.78
2022-08-29T11:17:10.580Z,68.50
2022-08-29T11:20:40.701Z,64.46
2022-08-29T11:23:47.717Z,65.51
2022-08-29T11:27:21.593Z,65.99
2022-08-29T11:30:46.091Z,67.81
2022-08-29T11:34:08.249Z,69.70
2022-08-29T11:37:25.918Z,70.84
2022-08-29T11:44:37.871Z,66.78
2022-08-29T11:47:45.551Z,66.96
2022-08-29T11:50:49.384Z,67.65
2022-08-29T11:53:51.333Z,67.32
2022-08-29T11:57:02.351Z,66.89
2022-08-29T12:03:35.240Z,66.52
2022-08-29T12:06:57.339Z,67.01
2022-08-29T12:10:06.626Z,67.33
2022-08-29T12:13:08.475Z,67.40
2022-08-29T12:16:12.392Z,67.73
2022-08-29T12:19:47.433Z,67.26
2022-08-29T12:22:52.284Z,67.21
2022-08-29T12:26:21.081Z,67.99
2022-08-29T12:29:25.744Z,67.68
2022-08-29T12:32:46.694Z,67.63
2022-08-29T12:36:19.363Z,67.37
2022-08-29T12:39:45.858Z,67.64
2022-08-29T12:43:12.251Z,67.95
2022-08-29T12:46:30.874Z,67.84
2022-08-29T12:49:51.679Z,66.19
2022-08-29T12:53:23.884Z,65.54
2022-08-29T12:56:28.865Z,64.45
2022-08-29T12:59:30.754Z,64.17
2022-08-29T13:02:35.620Z,64.24
2022-08-29T13:05:39.486Z,64.98
2022-08-29T13:08:41.290Z,65.83
2022-08-29T13:11:43.031Z,66.01
2022-08-29T13:15:00.366Z,66.20
2022-08-29T13:18:03.250Z,66.52
2022-08-29T13:21:27.213Z,67.19
2022-08-29T13:24:29.090Z,66.39
2022-08-29T13:27:30.796Z,64.84
2022-08-29T13:30:32.443Z,64.43
2022-08-29T13:33:35.989Z,63.43
2022-08-29T13:36:52.025Z,63.95
2022-08-29T13:39:54.339Z,64.10
2022-08-29T13:42:57.017Z,64.80
2022-08-29T13:46:18.445Z,65.63
2022-08-29T13:49:26.225Z,65.80
2022-08-29T13:52:31.410Z,66.68
2022-08-29T13:55:34.640Z,66.05
2022-08-29T13:58:36.522Z,65.64
2022-08-29T14:05:00.397Z,64.57
2022-08-29T14:08:02.769Z,63.99
2022-08-29T14:11:04.561Z,63.75
2022-08-29T14:14:13.134Z,63.80
2022-08-29T14:17:18.536Z,64.14
2022-08-29T14:20:21.081Z,64.82
2022-08-29T14:23:23.370Z,65.53
2022-08-29T14:26:26.421Z,66.01
2022-08-29T14:29:30.063Z,66.09
2022-08-29T14:32:32.675Z,65.94
2022-08-29T14:35:34.925Z,65.44
2022-08-29T14:38:36.792Z,64.93
2022-08-29T14:41:38.778Z,64.95
2022-08-29T14:44:40.659Z,64.98
2022-08-29T14:47:43.607Z,64.06
2022-08-29T14:50:45.460Z,63.42
2022-08-29T14:53:54.250Z,63.52
2022-08-29T14:56:56.652Z,64.24
2022-08-29T14:59:58.405Z,64.15
2022-08-29T15:03:00.513Z,64.43
2022-08-29T15:06:05.673Z,63.76
2022-08-29T15:09:07.476Z,63.63
2022-08-29T15:12:13.444Z,62.96
2022-08-29T15:15:15.232Z,62.37
2022-08-29T15:18:42.816Z,62.43
2022-08-29T15:21:40.776Z,62.07
2022-08-29T15:24:42.706Z,62.68
2022-08-29T15:27:44.655Z,62.08
2022-08-29T15:30:47.576Z,62.18
2022-08-29T15:33:49.598Z,61.11
2022-08-29T15:36:52.231Z,59.75
2022-08-29T15:39:55.119Z,59.70
2022-08-29T15:42:57.037Z,59.63
2022-08-29T15:45:59.443Z,59.96
2022-08-29T15:49:01.878Z,60.33
2022-08-29T15:52:03.664Z,60.98
2022-08-29T15:55:06.435Z,61.06
2022-08-29T15:58:08.101Z,60.97
2022-08-29T16:01:10.471Z,61.26
2022-08-29T16:04:14.468Z,61.29
2022-08-29T16:07:17.116Z,61.37
2022-08-29T16:10:18.885Z,61.78
2022-08-29T16:13:21.309Z,61.86
2022-08-29T16:16:23.110Z,61.93
2022-08-29T16:19:24.960Z,61.84
2022-08-29T16:22:27.814Z,61.94
2022-08-29T16:25:31.136Z,61.91
2022-08-29T16:28:33.418Z,62.06
2022-08-29T16:31:36.095Z,62.30
2022-08-29T16:34:38.422Z,62.53
2022-08-29T16:37:40.401Z,62.37
2022-08-29T16:40:42.197Z,62.65
2022-08-29T16:43:45.557Z,62.68
2022-08-29T16:46:47.297Z,62.87
2022-08-29T16:49:49.003Z,63.01
2022-08-29T16:52:50.763Z,63.11
2022-08-29T16:55:52.666Z,63.21
2022-08-29T16:59:04.519Z,63.46
2022-08-29T17:02:06.777Z,63.63
2022-08-29T17:05:08.598Z,63.91
2022-08-29T17:08:10.323Z,63.85
2022-08-29T17:11:11.962Z,64.22
2022-08-29T17:14:14.538Z,64.33
2022-08-29T17:17:16.389Z,64.42
2022-08-29T17:20:20.346Z,64.73
2022-08-29T17:23:22.194Z,64.77
2022-08-29T17:26:24.179Z,65.07
2022-08-29T17:29:25.988Z,65.33
2022-08-29T17:32:28.511Z,65.66
2022-08-29T17:35:31.289Z,65.73
2022-08-29T17:38:33.580Z,65.99
2022-08-29T17:41:37.632Z,66.09
2022-08-29T17:44:39.507Z,66.35
2022-08-29T17:47:41.375Z,66.46
2022-08-29T17:50:43.774Z,66.66
2022-08-29T17:53:45.724Z,66.84
2022-08-29T17:56:54.028Z,67.00
2022-08-29T17:59:56.019Z,67.22
2022-08-29T18:02:58.490Z,67.38
2022-08-29T18:06:00.261Z,67.67
2022-08-29T18:09:02.244Z,67.84
2022-08-29T18:12:04.257Z,67.96
2022-08-29T18:15:07.379Z,68.15
2022-08-29T18:18:09.757Z,68.26
2022-08-29T18:21:16.455Z,68.37
2022-08-29T18:24:20.089Z,68.36
2022-08-29T18:27:22.459Z,68.51
2022-08-29T18:30:24.381Z,68.64
2022-08-29T18:33:38.864Z,68.96
2022-08-29T18:36:49.144Z,69.22
2022-08-29T18:39:50.976Z,69.42
2022-08-29T18:42:52.838Z,69.50
2022-08-29T18:45:55.402Z,69.72
2022-08-29T18:48:57.477Z,69.97
2022-08-29T18:51:59.154Z,70.27
2022-08-29T18:55:00.915Z,70.42
2022-08-29T18:58:02.792Z,70.62
2022-08-29T19:01:27.107Z,70.92
2022-08-29T19:04:30.009Z,71.09
2022-08-29T19:07:31.889Z,71.22
2022-08-29T19:10:34.282Z,71.33
2022-08-29T19:13:36.118Z,71.59
2022-08-29T19:16:39.648Z,71.71
2022-08-29T19:20:00.166Z,71.53
2022-08-29T19:23:03.656Z,70.95
2022-08-29T19:26:09.022Z,70.45
2022-08-29T19:29:13.514Z,71.42
2022-08-29T19:32:15.337Z,72.18
2022-08-29T19:35:17.221Z,72.47
2022-08-29T19:38:20.585Z,73.16
2022-08-29T19:41:22.478Z,73.83
2022-08-29T19:44:24.599Z,74.46
2022-08-29T19:47:26.364Z,75.16
2022-08-29T19:50:28.154Z,75.56
2022-08-29T19:53:29.926Z,75.93
2022-08-29T19:56:33.620Z,75.94
2022-08-29T19:59:35.561Z,76.27
2022-08-29T20:02:37.558Z,76.60
2022-08-29T20:05:39.678Z,76.63
2022-08-29T20:08:43.677Z,76.85
2022-08-29T20:11:45.711Z,77.09
2022-08-29T20:14:50.209Z,77.25
2022-08-29T20:17:51.953Z,77.50
2022-08-29T20:20:55.545Z,77.76
2022-08-29T20:23:58.398Z,77.89
2022-08-29T20:27:01.589Z,77.95
2022-08-29T20:30:06.293Z,77.71
2022-08-29T20:33:08.213Z,78.03
2022-08-29T20:36:34.522Z,78.29
2022-08-29T20:39:46.418Z,78.61
2022-08-29T20:42:48.215Z,79.26
2022-08-29T20:45:49.983Z,79.51
2022-08-29T20:48:51.675Z,79.60
2022-08-29T20:51:53.409Z,80.05
2022-08-29T20:54:55.208Z,80.44
2022-08-29T20:57:57.018Z,80.87
2022-08-29T21:01:00.763Z,80.95
2022-08-29T21:04:23.074Z,80.85
2022-08-29T21:07:25.917Z,80.49
2022-08-29T21:10:27.710Z,80.26
2022-08-29T21:13:29.540Z,80.37
2022-08-29T21:16:31.503Z,80.35
2022-08-29T21:19:34.597Z,80.41
2022-08-29T21:22:36.321Z,80.68
2022-08-29T21:25:40.293Z,80.88
2022-08-29T21:28:44.355Z,81.27
2022-08-29T21:31:50.585Z,81.84
2022-08-29T21:34:52.441Z,81.92
2022-08-29T21:37:54.306Z,82.30
2022-08-29T21:40:58.750Z,82.83
2022-08-29T21:44:00.508Z,82.84
2022-08-29T21:47:03.035Z,83.01
2022-08-29T21:50:06.011Z,83.11
2022-08-29T21:53:08.007Z,83.15
2022-08-29T21:56:09.702Z,83.22
2022-08-29T21:59:12.401Z,82.91
2022-08-29T22:02:15.223Z,83.06
2022-08-29T22:05:17.083Z,83.08
2022-08-29T22:08:21.027Z,83.44
2022-08-29T22:11:29.458Z,83.03
2022-08-29T22:14:58.134Z,83.06
2022-08-29T22:18:00.170Z,83.25
2022-08-29T22:21:02.574Z,83.15
2022-08-29T22:24:06.778Z,82.97
2022-08-29T22:27:08.542Z,83.27
2022-08-29T22:30:12.091Z,83.66
2022-08-29T22:33:16.418Z,83.85
2022-08-29T22:36:19.300Z,83.69
2022-08-29T22:39:21.060Z,83.71
2022-08-29T22:42:22.959Z,83.82
2022-08-29T22:45:25.948Z,83.83
2022-08-29T22:48:27.706Z,83.34
2022-08-29T22:51:29.748Z,83.53
2022-08-29T22:54:37.635Z,83.94
2022-08-29T22:57:40.825Z,84.45
2022-08-29T23:00:42.702Z,84.82
2022-08-29T23:03:45.339Z,85.28
2022-08-29T23:06:56.585Z,85.16
2022-08-29T23:09:58.392Z,85.11
2022-08-29T23:13:00.085Z,85.26
2022-08-29T23:16:01.858Z,84.90
2022-08-29T23:19:04.280Z,84.55
2022-08-29T23:22:07.518Z,85.05
2022-08-29T23:25:10.021Z,85.55
2022-08-29T23:28:11.816Z,85.57
2022-08-29T23:31:15.419Z,85.64
2022-08-29T23:34:17.551Z,85.68
2022-08-29T23:37:19.426Z,85.80
2022-08-29T23:40:21.226Z,85.94
2022-08-29T23:43:24.778Z,86.05
2022-08-29T23:46:26.743Z,86.05
2022-08-29T23:49:29.019Z,86.31
2022-08-29T23:52:30.829Z,86.38
2022-08-29T23:55:32.608Z,86.48
2022-08-29T23:58:34.390Z,87.08
